Wayland, Michigan
Current Conditions -  °F | °C
As of 7:53 PM on Wednesday 26 Nov 2014 (Local Time) from KGRR Reporting Station
Overcast Overcast  
Wind Chill: 24°   Ceiling: 3700
Heat Index: 29°   Visibility: 10mi
Dew Point: 21°   Wind: 5mph
Humidity: 72%   Direction: 350°N
Pressure: 30.11"   Gusts: NA
Location:  42.67°N, 85.64°W
Report Text: KGRR 270053Z 35004KT 10SM OVC037 M02/M06 A3011 RMK AO2 SLP208 T10171061
Loading
Personal Weather Stations






























Interactive Weather Map New forecast layout! Learn more

10-Day Weather Forecast

Advertisements
Track Severe Weather on mobile